createdAt,value
2023-04-23T00:02:04.179Z,99696.88
2023-04-23T00:07:27.062Z,99721.13
2023-04-23T00:12:49.885Z,99685.03
2023-04-23T00:18:12.669Z,99711.59
2023-04-23T00:23:34.745Z,99722.88
2023-04-23T00:28:57.334Z,99706.72
2023-04-23T00:34:19.795Z,99738.06
2023-04-23T00:39:42.376Z,99737.50
2023-04-23T00:45:05.420Z,99715.97
2023-04-23T00:50:27.364Z,99739.19
2023-04-23T00:55:49.683Z,99746.78
2023-04-23T01:01:13.086Z,99730.66
2023-04-23T01:06:35.541Z,99731.53
2023-04-23T01:11:58.871Z,99738.91
2023-04-23T01:17:22.016Z,99746.97
2023-04-23T01:22:44.580Z,99732.25
2023-04-23T01:28:10.453Z,99739.47
2023-04-23T01:33:34.391Z,99746.41
2023-04-23T01:38:57.373Z,99744.00
2023-04-23T01:44:20.210Z,99735.25
2023-04-23T01:49:42.487Z,99740.31
2023-04-23T01:55:06.093Z,99734.00
2023-04-23T02:00:28.817Z,99719.94
2023-04-23T02:05:51.848Z,99730.34
2023-04-23T02:11:14.227Z,99717.41
2023-04-23T02:16:37.352Z,99738.28
2023-04-23T02:21:59.919Z,99744.13
2023-04-23T02:27:22.971Z,99757.16
2023-04-23T02:32:45.976Z,99729.47
2023-04-23T02:38:08.246Z,99722.91
2023-04-23T02:43:30.398Z,99773.47
2023-04-23T02:48:53.127Z,99757.31
2023-04-23T02:54:17.694Z,99772.50
2023-04-23T02:59:40.337Z,99769.13
2023-04-23T03:05:05.570Z,99778.19
2023-04-23T03:10:27.792Z,99772.03
2023-04-23T03:15:51.458Z,99791.03
2023-04-23T03:21:14.128Z,99798.91
2023-04-23T03:26:37.212Z,99791.78
2023-04-23T03:32:02.656Z,99802.16
2023-04-23T03:37:26.265Z,99805.81
2023-04-23T03:42:50.013Z,99800.44
2023-04-23T03:48:16.665Z,99791.09
2023-04-23T03:53:38.669Z,99819.78
2023-04-23T03:59:19.107Z,99785.16
2023-04-23T04:04:46.993Z,99821.75
2023-04-23T04:10:12.047Z,99818.69
2023-04-23T04:15:33.901Z,99828.91
2023-04-23T04:20:56.286Z,99847.34
2023-04-23T04:26:18.049Z,99853.00
2023-04-23T04:31:40.014Z,99844.41
2023-04-23T04:37:02.090Z,99838.94
2023-04-23T04:42:25.999Z,99846.75
2023-04-23T04:47:47.744Z,99849.78
2023-04-23T04:53:09.700Z,99827.50
2023-04-23T04:59:22.043Z,99870.84
2023-04-23T05:04:44.717Z,99880.41
2023-04-23T05:10:06.929Z,99876.59
2023-04-23T05:15:32.060Z,99876.50
2023-04-23T05:20:53.840Z,99876.94
2023-04-23T05:26:15.929Z,99883.81
2023-04-23T05:31:38.363Z,99881.41
2023-04-23T05:37:00.088Z,99890.59
2023-04-23T05:42:24.764Z,99887.84
2023-04-23T05:47:46.802Z,99896.63
2023-04-23T05:53:12.554Z,99862.19
2023-04-23T05:58:34.440Z,99894.72
2023-04-23T06:03:56.963Z,99897.22
2023-04-23T06:09:19.112Z,99895.66
2023-04-23T06:14:41.559Z,99894.28
2023-04-23T06:20:05.565Z,99899.75
2023-04-23T06:25:27.401Z,99900.22
2023-04-23T06:30:49.791Z,99903.38
2023-04-23T06:36:12.136Z,99892.84
2023-04-23T06:41:35.056Z,99902.13
2023-04-23T06:47:08.778Z,99888.38
2023-04-23T06:52:31.101Z,99882.06
2023-04-23T06:57:59.585Z,99899.22
2023-04-23T07:03:23.190Z,99891.44
2023-04-23T07:08:47.263Z,99902.22
2023-04-23T07:14:12.981Z,99922.19
2023-04-23T07:19:36.473Z,99907.03
2023-04-23T07:24:59.636Z,99906.81
2023-04-23T07:30:23.673Z,99905.66
2023-04-23T07:35:48.677Z,99889.19
2023-04-23T07:41:11.046Z,99905.81
2023-04-23T07:46:34.700Z,99892.84
2023-04-23T07:51:58.562Z,99911.16
2023-04-23T08:03:05.292Z,99919.72
2023-04-23T08:08:31.245Z,99896.69
2023-04-23T08:20:30.709Z,99873.25
2023-04-23T08:25:57.282Z,99897.50
2023-04-23T08:31:26.617Z,99888.31
2023-04-23T08:36:54.526Z,99885.47
2023-04-23T08:42:39.871Z,99902.09
2023-04-23T08:48:08.206Z,99895.19
2023-04-23T08:53:34.644Z,99896.97
2023-04-23T08:59:01.301Z,99902.91
2023-04-23T09:04:29.558Z,99895.84
2023-04-23T09:09:55.109Z,99901.34
2023-04-23T09:15:19.246Z,99906.53
2023-04-23T09:20:46.505Z,99891.13
2023-04-23T09:26:11.996Z,99893.19
2023-04-23T09:31:35.346Z,99868.56
2023-04-23T09:37:01.592Z,99880.56
2023-04-23T09:42:26.778Z,99880.06
2023-04-23T09:47:53.372Z,99873.75
2023-04-23T09:53:31.530Z,99871.69
2023-04-23T09:58:56.756Z,99878.63
2023-04-23T10:04:23.070Z,99868.59
2023-04-23T10:09:56.624Z,99846.38
2023-04-23T10:15:23.055Z,99817.09
2023-04-23T10:20:51.000Z,99830.34
2023-04-23T10:26:17.316Z,99819.03
2023-04-23T10:31:50.872Z,99828.47
2023-04-23T10:37:19.904Z,99807.22
2023-04-23T10:42:46.734Z,99822.66
2023-04-23T10:48:09.996Z,99816.56
2023-04-23T10:53:32.796Z,99817.00
2023-04-23T10:58:55.247Z,99813.28
2023-04-23T11:04:23.427Z,99833.38
2023-04-23T11:09:50.315Z,99839.38
2023-04-23T11:15:17.246Z,99810.84
2023-04-23T11:20:39.413Z,99841.69
2023-04-23T11:26:02.432Z,99811.63
2023-04-23T11:37:21.494Z,99830.88
2023-04-23T11:42:48.213Z,99819.06
2023-04-23T11:48:11.211Z,99819.75
2023-04-23T11:53:56.911Z,99826.69
2023-04-23T11:59:22.294Z,99825.13
2023-04-23T12:04:44.836Z,99817.88
2023-04-23T12:10:07.743Z,99816.66
2023-04-23T12:15:30.043Z,99787.13
2023-04-23T12:20:52.050Z,99813.09
2023-04-23T12:26:18.243Z,99791.66
2023-04-23T12:31:40.428Z,99798.13
2023-04-23T12:37:07.500Z,99808.84
2023-04-23T12:42:30.050Z,99805.31
2023-04-23T12:47:55.482Z,99794.50
2023-04-23T12:53:30.453Z,99792.94
2023-04-23T12:58:52.465Z,99770.75
2023-04-23T13:04:16.348Z,99774.03
2023-04-23T13:09:38.283Z,99761.94
2023-04-23T13:15:00.666Z,99767.06
2023-04-23T13:20:23.887Z,99773.69
2023-04-23T13:25:45.909Z,99771.28
2023-04-23T13:31:12.553Z,99767.09
2023-04-23T13:36:39.006Z,99786.50
2023-04-23T13:42:09.440Z,99785.84
2023-04-23T13:47:40.212Z,99766.22
2023-04-23T13:53:05.706Z,99761.38
2023-04-23T14:04:51.275Z,99782.19
2023-04-23T14:10:32.771Z,99754.31
2023-04-23T14:15:56.096Z,99762.38
2023-04-23T14:21:41.226Z,99804.47
2023-04-23T14:38:39.804Z,99759.81
2023-04-23T14:44:27.842Z,99767.59
2023-04-23T14:55:37.301Z,99771.88
2023-04-23T15:01:01.305Z,99787.09
2023-04-23T15:06:23.676Z,99776.06
2023-04-23T15:11:46.180Z,99764.88
2023-04-23T15:17:08.641Z,99776.41
2023-04-23T15:22:34.145Z,99789.50
2023-04-23T15:28:16.706Z,99793.88
2023-04-23T15:33:39.341Z,99805.19
2023-04-23T15:39:01.625Z,99788.84
2023-04-23T15:44:25.568Z,99800.16
2023-04-23T15:49:47.588Z,99788.59
2023-04-23T15:55:09.986Z,99800.88
2023-04-23T16:00:34.133Z,99800.88
2023-04-23T16:05:56.304Z,99796.50
2023-04-23T16:11:19.492Z,99811.31
2023-04-23T16:16:42.712Z,99812.91
2023-04-23T16:22:05.503Z,99810.81
2023-04-23T16:27:28.913Z,99826.34
2023-04-23T16:32:51.935Z,99833.97
2023-04-23T16:38:16.025Z,99821.69
2023-04-23T16:43:39.583Z,99831.78
2023-04-23T16:49:03.090Z,99830.53
2023-04-23T16:54:25.619Z,99844.75
2023-04-23T16:59:49.135Z,99851.31
2023-04-23T17:05:39.391Z,99867.72
2023-04-23T17:53:12.980Z,99843.13
2023-04-23T17:58:36.046Z,99907.81
2023-04-23T18:04:00.887Z,99902.53
2023-04-23T18:09:24.509Z,99899.91
2023-04-23T18:14:47.225Z,99909.91
2023-04-23T18:20:10.607Z,99922.81
2023-04-23T18:25:34.019Z,99922.78
2023-04-23T18:31:02.916Z,99919.34
2023-04-23T18:36:34.168Z,99926.88
2023-04-23T18:41:58.980Z,99930.78
2023-04-23T18:47:29.648Z,99917.72
2023-04-23T18:52:52.065Z,99936.97
2023-04-23T18:58:14.741Z,99938.06
2023-04-23T19:03:37.730Z,99932.19
2023-04-23T19:09:00.949Z,99944.63
2023-04-23T19:14:24.218Z,99926.41
2023-04-23T19:19:49.239Z,99931.34
2023-04-23T19:25:13.097Z,99939.44
2023-04-23T19:30:35.743Z,99943.22
2023-04-23T19:35:59.499Z,99930.53
2023-04-23T19:41:22.913Z,99936.28
2023-04-23T19:46:45.387Z,99925.09
2023-04-23T19:52:09.738Z,99936.44
2023-04-23T19:57:31.801Z,99939.22
2023-04-23T20:02:56.149Z,99935.28
2023-04-23T20:08:26.463Z,99932.34
2023-04-23T20:13:49.734Z,99945.84
2023-04-23T20:19:13.934Z,99950.72
2023-04-23T20:24:39.204Z,99946.19
2023-04-23T20:30:02.092Z,99945.44
2023-04-23T20:35:26.681Z,99947.09
2023-04-23T20:40:50.673Z,99948.75
2023-04-23T20:46:13.511Z,99966.72
2023-04-23T20:51:36.686Z,99956.31
2023-04-23T20:56:59.386Z,99954.72
2023-04-23T21:02:21.918Z,99969.75
2023-04-23T21:07:45.585Z,99957.47
2023-04-23T21:13:11.137Z,99954.78
2023-04-23T21:18:34.187Z,99962.56
2023-04-23T21:23:57.345Z,99965.81
2023-04-23T21:29:20.150Z,99961.78
2023-04-23T21:34:42.430Z,99971.16
2023-04-23T21:40:05.810Z,99976.00
2023-04-23T21:45:28.772Z,99976.53
2023-04-23T21:50:52.556Z,99968.22
2023-04-23T21:56:15.769Z,99982.16
2023-04-23T22:01:38.411Z,99978.38
2023-04-23T22:07:03.070Z,99991.22
2023-04-23T22:12:26.348Z,99983.97
2023-04-23T22:17:51.231Z,99983.72
2023-04-23T22:23:14.105Z,99997.03
2023-04-23T22:28:36.350Z,100005.56
2023-04-23T22:33:59.069Z,100013.03
2023-04-23T22:39:21.322Z,100004.97
2023-04-23T22:44:44.282Z,100010.28
2023-04-23T22:50:07.762Z,100010.25
2023-04-23T22:55:30.614Z,100013.72
2023-04-23T23:00:53.015Z,100009.69
2023-04-23T23:06:15.947Z,100018.19
2023-04-23T23:11:38.330Z,100002.88
2023-04-23T23:17:00.732Z,100022.41
2023-04-23T23:22:22.970Z,100025.03
2023-04-23T23:27:46.171Z,100018.03
2023-04-23T23:33:08.028Z,100000.84
2023-04-23T23:38:30.471Z,100008.91
2023-04-23T23:43:53.405Z,100014.78
2023-04-23T23:49:16.082Z,100009.81
2023-04-23T23:54:38.540Z,100021.22
